Etusivu
METAR-TAF:

METAR-TAF

Lentoasemat :

Giddings-Lee County Airport

Giddings, Texas, Yhdysvallat

Leveyspiiri: 30-10-09N, Pituuspiiri: 096-58-48W, korkeus merenpinnasta: 148 m

Tämänhetkinen sää

Tämä raportti tehtiin 21 minuuttia sitten, kello 10.55 UTC
tyyntä
Lämpötila 16°C
Kosteus 100%
Ilmanpaine 1018 hPa
Näkyvyys: 4.8 km
Pilvistä 100 ft:n korkeudessa
utua

METAR: KGYB 061055Z AUTO 00000KT 3SM BR OVC001 16/16 A3005 RMK AO2 T01610161

Aika: 05:16 (11:16 UTC)


TAF: puuttuu

Säähavainnot ja -ennusteet yli 4000 lentoasemalta (METAR- ja TAF-raportit).

Käytössä olevat sääasemat on merkitty karttaan keltaisilla ja punaisilla pisteillä.

Aseta hiiri pisteen päälle nähdäksesi sääaseman nimen.

Klikkaa sitten nähdäksesi säähavainnot ja -ennusteet.

Kartan vaihtaminen: klikkaa mustalla rastilla varustettuja vihreitä pisteitä, niin voit zoomata sisään; viivalla varustettua vihreää pistettä, niin voit zoomata ulos tai vihreitä nuolia, niin pääset viereisille kartoille.


METAR-TAF: